Time;durP1;ratioP1;P1;durP2;ratioP2;P2;SDS_P1;SDS_P2;PMS_P1;PMS_P2;Temp;Humidity;BMP_temperature;BMP_pressure;BME280_temperature;BME280_humidity;BME280_pressure;Samples;Min_cycle;Max_cycle;Signal;HPM_P1;HPM_P2
2022/05/14 00:01:52;;;;;;;6.25;3.53;;;;;;;10.95;61.66;101256.81;7396316;19;20019;-66
2022/05/14 00:04:20;;;;;;;4.78;2.90;;;;;;;10.91;61.76;101254.22;7392869;19;20473;-65
2022/05/14 00:06:48;;;;;;;6.15;3.00;;;;;;;10.88;61.93;101251.66;7396028;19;20023;-67
2022/05/14 00:09:16;;;;;;;5.38;2.80;;;;;;;10.85;62.04;101256.94;7394448;19;20031;-66
2022/05/14 00:14:28;;;;;;;8.32;3.13;;;;;;;10.79;62.32;101253.53;7396605;19;20046;-66
2022/05/14 00:16:56;;;;;;;6.78;3.30;;;;;;;10.76;62.41;101249.19;7392351;19;20476;-66
2022/05/14 00:19:24;;;;;;;6.32;3.80;;;;;;;10.72;62.58;101245.75;7395356;19;20112;-66
2022/05/14 00:21:52;;;;;;;8.20;3.50;;;;;;;10.70;62.67;101246.66;7395755;19;20051;-66
2022/05/14 00:24:22;;;;;;;7.65;3.25;;;;;;;10.68;62.63;101240.56;7393568;19;20031;-66
2022/05/14 00:26:50;;;;;;;13.65;4.05;;;;;;;10.68;62.76;101243.19;7395674;19;20037;-66
2022/05/14 00:29:18;;;;;;;7.32;3.90;;;;;;;10.67;62.71;101237.06;7394999;19;20022;-67
2022/05/14 00:31:49;;;;;;;7.45;3.80;;;;;;;10.66;62.93;101242.34;7393655;19;20031;-65
2022/05/14 00:34:18;;;;;;;8.60;3.92;;;;;;;10.62;63.06;101241.53;7393901;19;20014;-65
2022/05/14 00:36:46;;;;;;;6.97;4.30;;;;;;;10.60;63.08;101243.28;7393524;19;20022;-65
2022/05/14 00:39:14;;;;;;;6.15;4.00;;;;;;;10.58;63.20;101245.09;7393554;19;20018;-66
2022/05/14 00:41:48;;;;;;;9.13;4.47;;;;;;;10.56;63.34;101246.84;7395208;19;20022;-66
2022/05/14 00:44:17;;;;;;;10.65;4.22;;;;;;;10.53;63.33;101244.28;7395480;19;20022;-66
2022/05/14 00:46:55;;;;;;;7.68;3.85;;;;;;;10.50;63.57;101245.19;7393084;19;20383;-66
2022/05/14 00:49:26;;;;;;;5.47;3.95;;;;;;;10.48;63.75;101244.34;7393568;19;20015;-66
2022/05/14 00:51:55;;;;;;;7.60;4.47;;;;;;;10.44;63.75;101245.28;7395401;19;20031;-66
2022/05/14 00:54:28;;;;;;;5.97;4.38;;;;;;;10.42;64.06;101249.66;7393277;19;20113;-66
2022/05/14 00:57:02;;;;;;;7.93;5.25;;;;;;;10.37;64.28;101248.84;7393884;19;20031;-66
2022/05/14 00:59:31;;;;;;;8.68;5.55;;;;;;;10.34;64.32;101248.88;7394400;19;20021;-65
2022/05/14 01:02:02;;;;;;;10.10;4.97;;;;;;;10.32;64.45;101258.50;7394692;19;20022;-66
2022/05/14 01:04:31;;;;;;;8.15;6.20;;;;;;;10.30;64.49;101245.41;7393187;19;20018;-65
2022/05/14 01:07:03;;;;;;;7.50;5.53;;;;;;;10.30;64.63;101253.28;7392685;19;20029;-65
2022/05/14 01:09:31;;;;;;;6.95;5.38;;;;;;;10.28;64.48;101245.41;7392851;19;20019;-66
2022/05/14 01:12:00;;;;;;;7.22;4.93;;;;;;;10.32;64.53;101245.38;7392509;19;20022;-67
2022/05/14 01:14:28;;;;;;;8.23;5.28;;;;;;;10.32;64.60;101250.63;7392828;19;20353;-66
2022/05/14 01:16:57;;;;;;;11.65;5.93;;;;;;;10.33;64.85;101247.13;7392359;19;20027;-67
2022/05/14 01:19:27;;;;;;;8.35;5.63;;;;;;;10.31;64.92;101243.66;7393456;19;20039;-67
2022/05/14 01:22:06;;;;;;;8.05;5.68;;;;;;;10.30;65.69;101250.66;7391867;19;20354;-66
2022/05/14 01:27:27;;;;;;;8.35;5.88;;;;;;;10.31;65.38;101248.88;7394156;19;20021;-66
2022/05/14 01:29:55;;;;;;;9.90;5.75;;;;;;;10.32;65.22;101235.75;7396431;19;20027;-66
2022/05/14 01:32:23;;;;;;;6.43;5.80;;;;;;;10.34;65.22;101243.63;7401085;19;20379;-66
2022/05/14 01:34:52;;;;;;;7.65;6.25;;;;;;;10.37;65.19;101243.59;7401288;19;20015;-66
2022/05/14 01:37:23;;;;;;;10.30;5.70;;;;;;;10.39;65.26;101239.22;7398973;19;20505;-66
2022/05/14 01:39:51;;;;;;;6.45;5.57;;;;;;;10.44;65.32;101240.03;7398656;19;20014;-66
2022/05/14 01:42:19;;;;;;;9.75;5.60;;;;;;;10.47;65.14;101237.34;7398285;19;20035;-66
2022/05/14 01:44:50;;;;;;;8.75;6.03;;;;;;;10.49;65.44;101239.94;7401037;19;20039;-67
2022/05/14 01:47:18;;;;;;;9.20;6.05;;;;;;;10.53;65.20;101245.13;7397936;19;20419;-67
2022/05/14 01:49:46;;;;;;;9.05;5.88;;;;;;;10.57;65.24;101252.06;7399093;19;20035;-66
2022/05/14 01:52:15;;;;;;;10.02;5.78;;;;;;;10.59;65.26;101241.56;7400754;19;20026;-66
2022/05/14 01:54:43;;;;;;;7.22;5.70;;;;;;;10.61;65.22;101241.56;7398035;19;20022;-67
2022/05/14 01:57:11;;;;;;;6.72;5.78;;;;;;;10.63;65.20;101250.25;7397499;19;20458;-66
2022/05/14 01:59:39;;;;;;;11.05;6.15;;;;;;;10.63;65.22;101245.88;7397771;19;20031;-65
2022/05/14 02:02:13;;;;;;;7.43;6.60;;;;;;;10.63;65.30;101245.88;7397797;19;20035;-67
2022/05/14 02:04:41;;;;;;;;;;;;;;;10.63;65.69;101232.75;7399123;19;20026;-66
2022/05/14 02:07:09;;;;;;;9.77;6.05;;;;;;;10.64;65.07;101252.00;7397418;19;20296;-66
2022/05/14 02:09:37;;;;;;;6.50;5.65;;;;;;;10.64;65.10;101245.00;7397391;19;20022;-66
2022/05/14 02:12:06;;;;;;;12.07;6.43;;;;;;;10.66;65.09;101234.47;7400102;19;20015;-64
2022/05/14 02:14:41;;;;;;;8.73;6.60;;;;;;;10.68;65.10;101236.19;7397321;19;20024;-67
2022/05/14 02:17:12;;;;;;;8.43;5.65;;;;;;;10.71;65.06;101232.66;7397422;19;20019;-66
2022/05/14 02:19:40;;;;;;;7.03;6.28;;;;;;;10.73;65.16;101242.22;7398484;19;20424;-66
2022/05/14 02:22:08;;;;;;;9.35;6.05;;;;;;;10.76;65.07;101241.31;7397445;19;20014;-66
2022/05/14 02:24:37;;;;;;;7.10;6.40;;;;;;;10.78;65.16;101238.66;7397231;19;20031;-66
2022/05/14 02:27:07;;;;;;;8.52;6.65;;;;;;;10.81;65.09;101238.63;7397206;19;20031;-66
2022/05/14 02:32:19;;;;;;;9.55;6.50;;;;;;;10.87;64.95;101247.28;7396422;19;20021;-66
2022/05/14 02:34:48;;;;;;;8.55;6.68;;;;;;;10.89;64.88;101257.75;7397217;19;20039;-65
2022/05/14 02:37:17;;;;;;;7.25;6.55;;;;;;;10.91;64.93;101256.84;7397557;19;20015;-66
2022/05/14 02:39:45;;;;;;;10.05;6.70;;;;;;;10.94;64.88;101255.06;7396789;19;20018;-65
2022/05/14 02:42:14;;;;;;;9.57;7.18;;;;;;;10.96;65.02;101264.66;7396721;19;20019;-66
2022/05/14 02:44:42;;;;;;;8.80;6.60;;;;;;;10.97;64.92;101261.16;7396728;19;20039;-66
2022/05/14 02:47:11;;;;;;;9.23;6.82;;;;;;;11.00;64.98;101250.59;7396710;19;20027;-66
2022/05/14 02:49:41;;;;;;;9.30;6.35;;;;;;;11.01;65.06;101257.56;7396403;19;20018;-66
2022/05/14 02:52:11;;;;;;;7.40;6.68;;;;;;;11.02;64.88;101259.31;7399071;19;20026;-67
2022/05/14 02:54:40;;;;;;;7.43;6.25;;;;;;;11.06;64.86;101260.13;7396432;19;20015;-65
2022/05/14 02:57:09;;;;;;;7.57;6.43;;;;;;;11.10;64.87;101256.56;7396399;19;20019;-66
2022/05/14 02:59:37;;;;;;;8.70;6.60;;;;;;;11.12;64.82;101260.03;7396240;19;20023;-65
2022/05/14 03:02:06;;;;;;;11.00;6.88;;;;;;;11.14;64.82;101258.25;7398398;19;20496;-65
2022/05/14 03:04:37;;;;;;;9.50;7.05;;;;;;;11.17;64.64;101247.72;7395775;19;20392;-65
2022/05/14 03:07:10;;;;;;;10.07;6.50;;;;;;;11.19;64.82;101259.03;7398034;19;20512;-66
2022/05/14 03:09:40;;;;;;;11.45;6.90;;;;;;;11.22;64.76;101264.25;7396479;19;20034;-65
2022/05/14 03:12:10;;;;;;;9.30;6.95;;;;;;;11.25;64.66;101266.81;7398133;19;20035;-66
2022/05/14 03:14:39;;;;;;;7.75;7.05;;;;;;;11.28;64.74;101270.31;7396503;19;20031;-66
2022/05/14 03:17:08;;;;;;;11.38;7.43;;;;;;;11.31;64.69;101272.88;7397012;19;20031;-66
2022/05/14 03:19:36;;;;;;;8.40;6.95;;;;;;;11.32;64.77;101269.34;7395795;19;20018;-67
2022/05/14 03:22:07;;;;;;;10.27;6.82;;;;;;;11.35;64.68;101264.91;7397767;19;20022;-67
2022/05/14 03:24:37;;;;;;;9.43;6.88;;;;;;;11.39;64.57;101268.38;7396275;19;20027;-67
2022/05/14 03:27:06;;;;;;;11.32;7.47;;;;;;;11.40;64.55;101264.84;7395660;19;20022;-67
2022/05/14 03:29:34;;;;;;;10.25;7.45;;;;;;;11.44;64.35;101271.78;7396804;19;20014;-65
2022/05/14 03:32:02;;;;;;;8.95;6.95;;;;;;;11.47;64.37;101266.47;7395683;19;20031;-65
2022/05/14 03:34:32;;;;;;;9.20;7.63;;;;;;;11.49;64.38;101271.72;7395537;19;20022;-66
2022/05/14 03:37:01;;;;;;;10.05;7.38;;;;;;;11.54;64.27;101278.59;7395339;19;20018;-66
2022/05/14 03:39:31;;;;;;;7.22;6.57;;;;;;;11.56;64.17;101276.84;7395273;19;20014;-65
2022/05/14 03:42:00;;;;;;;7.80;7.03;;;;;;;11.59;64.15;101275.91;7397522;19;20015;-65
2022/05/14 03:44:28;;;;;;;8.68;7.78;;;;;;;11.62;64.41;101277.63;7395206;19;20019;-65
2022/05/14 03:46:57;;;;;;;11.73;6.97;;;;;;;11.65;64.18;101277.53;7395391;19;20017;-66
2022/05/14 03:49:25;;;;;;;8.00;6.63;;;;;;;11.67;64.08;101273.13;7396160;19;20015;-66
2022/05/14 03:51:53;;;;;;;8.32;7.13;;;;;;;11.68;64.04;101269.63;7394851;19;20018;-66
2022/05/14 03:54:22;;;;;;;10.52;7.88;;;;;;;11.69;63.87;101269.59;7396751;19;20022;-66
2022/05/14 03:56:52;;;;;;;9.07;7.75;;;;;;;11.74;64.08;101274.78;7394869;19;20026;-66
2022/05/14 03:59:20;;;;;;;11.25;7.28;;;;;;;11.76;64.01;101278.22;7396116;19;20047;-66
2022/05/14 04:01:49;;;;;;;10.43;7.03;;;;;;;11.77;64.01;101274.72;7394494;19;20499;-66
2022/05/14 04:04:17;;;;;;;8.57;7.68;;;;;;;11.80;63.87;101272.00;7394833;19;20022;-66
2022/05/14 04:06:45;;;;;;;7.95;7.15;;;;;;;11.83;63.78;101269.34;7396412;19;20014;-66
2022/05/14 04:09:13;;;;;;;12.85;6.88;;;;;;;11.87;63.76;101275.41;7394404;19;20387;-67
2022/05/14 04:11:41;;;;;;;8.50;7.03;;;;;;;11.90;63.74;101278.84;7396885;19;20031;-67
2022/05/14 04:14:12;;;;;;;13.25;6.63;;;;;;;11.94;63.76;101274.38;7395982;19;20023;-66
2022/05/14 04:16:40;;;;;;;11.75;6.70;;;;;;;11.96;63.54;101277.88;7395870;19;20029;-65
2022/05/14 04:19:08;;;;;;;7.30;6.60;;;;;;;11.99;63.51;101280.47;7395534;19;20038;-66
2022/05/14 04:21:38;;;;;;;11.45;6.18;;;;;;;12.02;63.57;101288.28;7394074;19;20014;-66
2022/05/14 04:24:07;;;;;;;7.80;6.32;;;;;;;12.06;63.32;101278.59;7394074;19;20024;-66
2022/05/14 04:26:35;;;;;;;9.77;6.30;;;;;;;12.09;63.31;101289.03;7393940;19;20123;-66
2022/05/14 04:29:04;;;;;;;6.68;6.07;;;;;;;12.13;63.28;101293.34;7395308;19;20022;-65
2022/05/14 04:31:34;;;;;;;9.20;6.13;;;;;;;12.16;63.31;101289.81;7394186;19;20018;-65
2022/05/14 04:34:03;;;;;;;11.35;6.13;;;;;;;12.18;63.15;101288.00;7394069;19;20018;-66
2022/05/14 04:36:31;;;;;;;11.75;5.63;;;;;;;12.23;63.15;101283.50;7393719;19;20045;-65
2022/05/14 04:38:59;;;;;;;8.00;5.90;;;;;;;12.26;62.83;101293.97;7395169;19;20040;-66
2022/05/14 04:41:30;;;;;;;7.22;5.05;;;;;;;12.31;62.77;101291.22;7393230;19;20466;-65
2022/05/14 04:43:58;;;;;;;9.73;5.80;;;;;;;12.35;62.74;101287.66;7393732;19;20078;-65
2022/05/14 04:46:27;;;;;;;15.70;6.22;;;;;;;12.38;62.57;101283.22;7395047;19;20018;-66
2022/05/14 04:48:58;;;;;;;9.15;5.13;;;;;;;12.43;62.20;101283.09;7394833;19;20031;-66
2022/05/14 04:51:26;;;;;;;10.27;5.40;;;;;;;12.49;62.29;101282.97;7393576;19;20035;-66
2022/05/14 04:53:54;;;;;;;5.85;4.65;;;;;;;12.53;62.25;101284.63;7394529;19;20498;-66
2022/05/14 04:56:22;;;;;;;10.20;5.00;;;;;;;12.57;62.15;101284.59;7393160;19;20014;-66
2022/05/14 04:58:50;;;;;;;7.70;4.22;;;;;;;12.61;61.97;101288.88;7392818;19;20477;-66
2022/05/14 05:01:25;;;;;;;11.32;6.28;;;;;;;12.63;61.86;101287.94;7394269;19;20498;-66
2022/05/14 05:03:50;;;;;;;8.32;4.60;;;;;;;12.66;61.77;101287.00;7399811;19;20023;-66
2022/05/14 05:06:23;;;;;;;9.48;4.43;;;;;;;12.69;61.77;101277.28;7399432;19;20375;-66
2022/05/14 05:08:53;;;;;;;5.50;3.80;;;;;;;12.71;61.95;101278.13;7398850;19;20510;-66
2022/05/14 05:11:22;;;;;;;6.57;3.97;;;;;;;12.75;61.57;101285.94;7402102;19;20018;-66
2022/05/14 05:13:50;;;;;;;9.05;4.35;;;;;;;12.77;61.74;101279.75;7398696;19;20489;-66
2022/05/14 05:16:19;;;;;;;8.75;3.80;;;;;;;12.81;61.53;101281.38;7399086;19;20044;-66
2022/05/14 05:18:47;;;;;;;9.27;4.35;;;;;;;12.86;61.36;101281.28;7398896;19;20018;-66
2022/05/14 05:21:15;;;;;;;10.93;3.65;;;;;;;12.89;61.35;101281.25;7398561;19;20031;-65
2022/05/14 05:23:45;;;;;;;9.02;3.88;;;;;;;12.94;61.19;101278.47;7399788;19;20390;-66
2022/05/14 05:26:14;;;;;;;5.15;3.17;;;;;;;12.97;61.08;101281.06;7399042;19;20046;-66
2022/05/14 05:28:42;;;;;;;9.57;3.75;;;;;;;13.02;60.90;101280.03;7401250;19;20023;-66
2022/05/14 05:31:10;;;;;;;8.98;3.47;;;;;;;13.07;60.69;101285.22;7398065;19;20367;-66
2022/05/14 05:33:39;;;;;;;8.88;3.80;;;;;;;13.11;60.23;101286.00;7401124;19;20018;-66
2022/05/14 05:36:08;;;;;;;10.80;3.45;;;;;;;13.16;60.14;101287.63;7400743;19;20081;-66
2022/05/14 05:38:37;;;;;;;8.38;3.40;;;;;;;13.22;59.93;101291.88;7397772;19;20081;-66
2022/05/14 05:41:08;;;;;;;5.82;2.95;;;;;;;13.26;59.70;101280.38;7398126;19;20024;-66
2022/05/14 05:43:36;;;;;;;6.68;3.13;;;;;;;13.32;59.87;101292.50;7401047;19;20011;-66
2022/05/14 05:46:04;;;;;;;6.40;3.13;;;;;;;13.39;59.75;101288.00;7398238;19;20039;-66
2022/05/14 05:48:33;;;;;;;7.30;3.90;;;;;;;13.45;59.54;101291.34;7400787;19;20028;-66
2022/05/14 05:51:01;;;;;;;14.10;3.75;;;;;;;13.52;59.22;101289.41;7398021;19;20039;-66
2022/05/14 05:58:52;;;;;;;8.05;3.28;;;;;;;13.74;58.71;101288.88;7398326;19;20018;-66
2022/05/14 06:01:21;;;;;;;5.88;2.92;;;;;;;13.81;58.71;101291.31;7397864;19;20014;-66
2022/05/14 06:03:51;;;;;;;9.10;3.05;;;;;;;13.85;58.16;101292.97;7398117;19;20040;-66
2022/05/14 06:06:20;;;;;;;6.93;2.95;;;;;;;13.92;58.29;101285.75;7398523;19;20070;-66
2022/05/14 06:08:49;;;;;;;9.75;3.28;;;;;;;13.97;58.31;101291.75;7399949;19;20027;-66
2022/05/14 06:11:20;;;;;;;9.23;3.53;;;;;;;14.04;58.07;101294.22;7397188;19;20021;-65
2022/05/14 06:13:50;;;;;;;9.32;2.60;;;;;;;14.10;58.04;101302.88;7399821;19;20042;-66
2022/05/14 06:16:18;;;;;;;8.43;2.88;;;;;;;14.16;57.97;101297.38;7398254;19;20025;-66
2022/05/14 06:18:47;;;;;;;8.38;2.97;;;;;;;14.23;57.58;101316.56;7397498;19;20035;-66
2022/05/14 06:21:16;;;;;;;6.78;2.72;;;;;;;14.29;57.57;101318.16;7399568;19;20010;-66
2022/05/14 06:23:44;;;;;;;5.72;2.92;;;;;;;14.34;57.49;101318.88;7397965;19;20509;-65
2022/05/14 06:26:12;;;;;;;6.28;2.40;;;;;;;14.39;57.68;101309.06;7396860;19;20419;-66
2022/05/14 06:28:43;;;;;;;8.43;3.10;;;;;;;14.44;57.39;101312.44;7396752;19;20022;-65
2022/05/14 06:31:11;;;;;;;10.23;3.00;;;;;;;14.49;57.20;101315.84;7396734;19;20022;-66
2022/05/14 06:33:39;;;;;;;10.82;3.65;;;;;;;14.53;56.46;101318.38;7399132;19;20027;-67
2022/05/14 06:36:08;;;;;;;10.32;3.17;;;;;;;14.57;56.48;101315.59;7398780;19;20021;-66
2022/05/14 06:38:36;;;;;;;10.93;3.10;;;;;;;14.63;56.91;101320.72;7396029;19;20014;-67
2022/05/14 06:41:07;;;;;;;11.63;2.92;;;;;;;14.69;56.17;101322.31;7396096;19;20485;-67
2022/05/14 06:43:35;;;;;;;12.77;3.42;;;;;;;14.75;56.40;101324.78;7396707;19;20023;-68
2022/05/14 06:46:06;;;;;;;8.45;3.35;;;;;;;14.77;55.64;101341.47;7396462;19;20011;-68
2022/05/14 06:48:34;;;;;;;8.20;3.20;;;;;;;14.82;55.47;101322.81;7396519;19;20022;-67
2022/05/14 06:51:06;;;;;;;8.50;2.78;;;;;;;14.86;55.67;101318.31;7396548;19;20019;-67
2022/05/14 06:53:36;;;;;;;6.45;2.65;;;;;;;14.91;55.27;101324.31;7398901;19;20022;-68
2022/05/14 06:56:06;;;;;;;8.13;2.50;;;;;;;14.97;54.71;101314.44;7398385;19;20040;-67
2022/05/14 06:58:38;;;;;;;8.85;2.53;;;;;;;15.09;54.96;101323.75;7396729;19;20019;-67
2022/05/14 07:01:11;;;;;;;6.90;2.40;;;;;;;15.23;54.14;101327.75;7396523;19;20035;-67
2022/05/14 07:09:03;;;;;;;9.73;2.92;;;;;;;15.45;53.18;101327.91;7397565;19;20014;-67
2022/05/14 07:11:31;;;;;;;8.00;2.67;;;;;;;15.52;53.13;101339.13;7398116;19;20018;-67
2022/05/14 07:14:00;;;;;;;10.02;2.03;;;;;;;15.54;52.63;101343.44;7397842;19;20031;-67
2022/05/14 07:16:30;;;;;;;8.80;2.17;;;;;;;15.57;52.14;101330.16;7397787;19;20022;-67
2022/05/14 07:18:58;;;;;;;11.90;2.50;;;;;;;15.60;51.62;101330.03;7395932;19;20015;-68
2022/05/14 07:21:27;;;;;;;8.43;2.40;;;;;;;15.67;52.15;101330.72;7397407;19;20045;-67
2022/05/14 07:23:55;;;;;;;11.20;2.67;;;;;;;15.73;51.78;101327.84;7396203;19;20010;-67
2022/05/14 07:26:23;;;;;;;7.45;3.78;;;;;;;15.78;51.53;101339.16;7395964;19;20022;-68
2022/05/14 07:28:51;;;;;;;8.77;2.60;;;;;;;15.86;51.64;101327.44;7396173;19;20022;-68
2022/05/14 07:31:19;;;;;;;7.22;2.63;;;;;;;15.94;50.71;101331.56;7397879;19;20457;-67
2022/05/14 07:33:51;;;;;;;11.25;2.90;;;;;;;16.01;50.54;101337.53;7400810;19;20018;-67
2022/05/14 07:36:24;;;;;;;7.40;2.58;;;;;;;16.07;50.78;101337.28;7398618;19;20455;-67
2022/05/14 07:38:53;;;;;;;9.35;2.80;;;;;;;16.11;50.41;101323.03;7399799;19;20014;-66
2022/05/14 07:41:21;;;;;;;12.52;2.80;;;;;;;16.17;50.63;101335.19;7397911;19;20031;-68
2022/05/14 07:43:53;;;;;;;7.80;2.70;;;;;;;16.16;50.66;101330.78;7397561;19;20135;-67
2022/05/14 07:46:26;;;;;;;9.23;2.80;;;;;;;16.16;50.38;101329.94;7398128;19;20022;-65
2022/05/14 07:48:59;;;;;;;8.50;2.97;;;;;;;16.14;50.01;101335.31;7399889;19;20018;-66
2022/05/14 07:51:28;;;;;;;9.03;2.80;;;;;;;16.11;50.17;101323.03;7399370;19;20014;-67
2022/05/14 07:53:56;;;;;;;10.30;2.85;;;;;;;16.13;50.21;101326.47;7399315;19;20015;-67
2022/05/14 07:56:25;;;;;;;8.77;2.63;;;;;;;16.19;50.12;101325.41;7396963;19;20023;-65
2022/05/14 07:58:53;;;;;;;7.97;2.55;;;;;;;16.29;50.12;101321.50;7397989;19;20021;-68
2022/05/14 08:01:21;;;;;;;9.27;2.80;;;;;;;16.43;50.03;101323.66;7398366;19;20024;-66
2022/05/14 08:03:58;;;;;;;7.18;2.55;;;;;;;16.53;48.66;101328.59;7399398;19;20015;-66
2022/05/14 08:06:26;;;;;;;9.00;3.95;;;;;;;16.63;49.33;101318.50;7399071;19;20022;-65
2022/05/14 08:08:55;;;;;;;6.88;2.63;;;;;;;16.69;49.00;101327.09;7396746;19;20372;-67
2022/05/14 08:11:24;;;;;;;7.88;3.33;;;;;;;16.76;48.99;101331.22;7398959;19;20014;-67
2022/05/14 08:13:53;;;;;;;10.73;2.70;;;;;;;16.82;48.84;101329.28;7397592;19;20010;-66
2022/05/14 08:16:22;;;;;;;9.10;3.08;;;;;;;16.86;49.09;101328.25;7398943;19;20037;-66
2022/05/14 08:18:50;;;;;;;8.02;2.85;;;;;;;16.97;48.68;101327.84;7397180;19;20030;-67
2022/05/14 08:26:42;;;;;;;10.80;3.63;;;;;;;17.09;47.56;101332.66;7398343;19;20018;-66
2022/05/14 08:29:11;;;;;;;10.52;3.80;;;;;;;17.13;48.10;101328.97;7396704;19;20105;-66
2022/05/14 08:31:39;;;;;;;6.93;3.63;;;;;;;17.16;48.03;101312.94;7396927;19;20023;-67
2022/05/14 08:34:07;;;;;;;9.55;3.28;;;;;;;17.22;48.32;101307.38;7395806;19;20019;-67
2022/05/14 08:36:38;;;;;;;9.00;3.88;;;;;;;17.28;47.73;101310.72;7394589;19;20035;-67
2022/05/14 08:39:07;;;;;;;8.13;3.53;;;;;;;17.34;47.86;101321.94;7394349;19;20014;-65
2022/05/14 08:41:39;;;;;;;16.27;3.70;;;;;;;17.39;47.90;101325.25;7397420;19;20019;-65
2022/05/14 08:44:11;;;;;;;5.32;2.42;;;;;;;17.40;47.06;101327.00;7395237;19;20018;-65
2022/05/14 08:46:41;;;;;;;8.45;3.28;;;;;;;17.45;47.32;101328.59;7397215;19;20477;-66
2022/05/14 08:49:12;;;;;;;9.27;3.13;;;;;;;17.50;47.11;101319.53;7396493;19;20031;-67
2022/05/14 08:51:47;;;;;;;10.45;3.33;;;;;;;17.52;46.41;101303.53;7397219;19;20028;-67
2022/05/14 08:54:16;;;;;;;8.05;2.85;;;;;;;17.56;46.35;101307.78;7395324;19;20011;-66
2022/05/14 08:56:50;;;;;;;9.80;3.35;;;;;;;17.58;46.54;101311.25;7396410;19;20018;-66
2022/05/14 08:59:47;;;;;;;9.30;3.08;;;;;;;17.63;46.16;101300.41;7396201;19;20023;-66
2022/05/14 09:02:19;;;;;;;4.95;2.85;;;;;;;17.69;45.57;101316.06;7396669;19;20027;-66
2022/05/14 09:04:49;;;;;;;8.20;3.40;;;;;;;17.79;45.71;101300.63;7395153;19;20014;-66
2022/05/14 09:07:20;;;;;;;6.20;2.85;;;;;;;17.87;45.35;101311.78;7393856;19;20018;-67
2022/05/14 09:09:53;;;;;;;12.50;3.13;;;;;;;17.89;45.61;101305.47;7395082;19;20022;-67
2022/05/14 09:12:24;;;;;;;9.82;2.75;;;;;;;17.94;45.55;101307.94;7395799;19;20039;-67
2022/05/14 09:14:58;;;;;;;9.13;2.70;;;;;;;17.97;45.40;101310.50;7392966;19;20031;-67
2022/05/14 09:17:29;;;;;;;5.82;2.50;;;;;;;18.00;45.32;101317.47;7394882;19;20027;-66
2022/05/14 09:19:58;;;;;;;9.05;3.05;;;;;;;17.95;45.76;101307.03;7393940;19;20022;-67
2022/05/14 09:22:36;;;;;;;8.43;3.38;;;;;;;17.98;45.96;101320.16;7393557;19;20343;-65
2022/05/14 09:25:14;;;;;;;5.10;2.83;;;;;;;17.99;46.15;101311.25;7394556;19;20506;-66
2022/05/14 09:27:46;;;;;;;9.48;3.10;;;;;;;18.05;45.70;101302.19;7395290;19;20473;-66
2022/05/14 09:30:25;;;;;;;7.85;2.55;;;;;;;18.16;45.58;101305.22;7394794;19;20019;-66
2022/05/14 09:32:53;;;;;;;9.45;3.08;;;;;;;18.22;44.92;101302.28;7394420;19;20019;-66
2022/05/14 09:35:24;;;;;;;8.40;3.15;;;;;;;18.24;44.77;101326.97;7395873;19;20035;-66
2022/05/14 09:38:09;;;;;;;9.75;2.60;;;;;;;18.25;43.71;101306.59;7395011;19;20028;-66
2022/05/14 09:40:37;;;;;;;7.35;3.05;;;;;;;18.30;44.46;101301.94;7393819;19;20019;-67
2022/05/14 09:43:13;;;;;;;7.32;2.38;;;;;;;18.31;43.59;101298.38;7395477;19;20371;-67
2022/05/14 09:45:43;;;;;;;8.35;2.80;;;;;;;18.37;43.70;101298.09;7395999;19;20023;-66
2022/05/14 09:48:16;;;;;;;9.27;2.75;;;;;;;18.44;43.61;101292.47;7397452;19;20014;-66
2022/05/14 09:50:47;;;;;;;6.88;2.78;;;;;;;18.46;43.83;101290.59;7396575;19;20105;-67
2022/05/14 09:53:28;;;;;;;9.07;2.72;;;;;;;18.47;43.42;101297.66;7399571;19;20517;-67
2022/05/14 09:56:16;;;;;;;10.48;2.90;;;;;;;18.47;43.73;101303.81;7400841;19;20374;-66
2022/05/14 09:58:54;;;;;;;10.65;2.95;;;;;;;18.46;43.58;101296.78;7402648;19;20509;-67
2022/05/14 10:01:28;;;;;;;7.47;2.47;;;;;;;18.49;44.12;101293.13;7401413;19;20481;-66
2022/05/14 10:04:10;;;;;;;8.60;3.13;;;;;;;18.55;43.55;101296.38;7404594;19;20018;-67
2022/05/14 10:06:46;;;;;;;9.50;2.67;;;;;;;18.57;43.48;101288.31;7402441;19;20509;-66
2022/05/14 10:09:29;;;;;;;8.07;3.28;;;;;;;18.56;43.06;101302.53;7400763;19;20477;-67
2022/05/14 10:12:05;;;;;;;6.68;2.45;;;;;;;18.59;42.76;101288.25;7403838;19;20031;-66
2022/05/14 10:14:53;;;;;;;9.38;2.40;;;;;;;18.61;42.89;101281.06;7402291;19;20502;-67
2022/05/14 10:17:38;;;;;;;9.77;3.55;;;;;;;18.55;42.96;101292.81;7399324;19;20022;-67
2022/05/14 10:20:29;;;;;;;8.20;2.10;;;;;;;18.59;43.52;101301.53;7398886;19;20498;-66
2022/05/14 10:28:59;;;;;;;6.85;2.22;;;;;;;18.35;42.94;101291.09;7402232;19;20007;-67
2022/05/14 10:31:37;;;;;;;8.55;2.22;;;;;;;18.34;42.95;101282.28;7398866;19;20023;-68
2022/05/14 10:34:12;;;;;;;7.13;2.08;;;;;;;18.42;42.01;101289.03;7399069;19;20010;-67
2022/05/14 10:36:48;;;;;;;8.27;2.30;;;;;;;18.58;41.96;101283.84;7399206;19;20023;-67
2022/05/14 10:39:22;;;;;;;9.82;2.03;;;;;;;18.68;41.26;101286.03;7400846;19;20014;-65
2022/05/14 10:41:55;;;;;;;;;;;;;;;18.72;40.79;101292.06;7400591;19;20031;-67
2022/05/14 10:44:36;;;;;;;6.22;1.85;;;;;;;18.71;41.11;101261.94;7398001;19;20344;-67
2022/05/14 10:47:09;;;;;;;8.73;2.78;;;;;;;18.94;41.29;101270.63;7398944;19;20015;-67
2022/05/14 10:49:41;;;;;;;6.03;1.83;;;;;;;19.12;40.27;101265.34;7398541;19;20026;-66
2022/05/14 10:52:23;;;;;;;5.97;2.30;;;;;;;19.27;39.64;101256.63;7400959;19;20015;-66
2022/05/14 10:54:51;;;;;;;6.82;2.08;;;;;;;19.30;38.99;101298.19;7398173;19;20011;-66
2022/05/14 10:57:35;;;;;;;10.18;2.20;;;;;;;19.30;39.12;101268.91;7397848;19;20015;-67
2022/05/14 11:00:17;;;;;;;9.57;2.25;;;;;;;19.34;38.85;101254.53;7399216;19;20023;-66
2022/05/14 11:02:56;;;;;;;4.95;2.20;;;;;;;19.33;38.48;101264.28;7397472;19;20014;-65
2022/05/14 11:05:36;;;;;;;6.00;2.00;;;;;;;19.36;39.01;101250.84;7397820;19;20018;-66
2022/05/14 11:08:33;;;;;;;14.27;2.10;;;;;;;19.38;38.96;101237.44;7399939;19;20013;-64
2022/05/14 11:11:08;;;;;;;7.53;2.60;;;;;;;19.58;38.90;101247.06;7397813;19;20027;-67
2022/05/14 11:13:40;;;;;;;9.50;2.47;;;;;;;19.67;38.85;101277.69;7399556;19;20390;-67
2022/05/14 11:16:11;;;;;;;9.00;2.10;;;;;;;19.79;38.17;101257.53;7398003;19;20140;-67
2022/05/14 11:18:48;;;;;;;5.97;2.00;;;;;;;19.84;37.53;101266.16;7399422;19;20032;-67
2022/05/14 11:21:18;;;;;;;13.93;2.33;;;;;;;19.84;38.38;101263.50;7398509;19;20029;-65
2022/05/14 11:24:04;;;;;;;9.68;2.20;;;;;;;19.80;37.96;101249.50;7398857;19;20011;-68
2022/05/14 11:26:32;;;;;;;5.85;2.50;;;;;;;19.74;38.33;101264.91;7397901;19;20019;-66
2022/05/14 11:29:15;;;;;;;9.20;2.33;;;;;;;19.73;38.31;101268.50;7397208;19;20353;-66
2022/05/14 11:31:53;;;;;;;7.88;2.53;;;;;;;19.76;38.48;101258.56;7399973;19;20040;-66
2022/05/14 11:34:23;;;;;;;6.72;2.47;;;;;;;19.78;39.00;101255.84;7397080;19;20018;-67
2022/05/14 11:36:56;;;;;;;8.98;2.33;;;;;;;19.81;39.03;101266.31;7399622;19;20122;-66
2022/05/14 11:39:31;;;;;;;8.93;2.08;;;;;;;19.91;38.94;101253.41;7396546;19;20477;-66
2022/05/14 11:42:15;;;;;;;5.22;1.65;;;;;;;20.11;37.21;101255.88;7398868;19;20010;-65
2022/05/14 11:44:52;;;;;;;;;;;;;;;20.30;37.46;101247.72;7398053;19;20478;-68
2022/05/14 11:47:44;;;;;;;6.45;1.98;;;;;;;20.57;37.47;101265.81;7398543;19;19946;-68
2022/05/14 11:50:16;;;;;;;8.57;2.58;;;;;;;20.74;37.26;101259.56;7397204;19;20026;-68
2022/05/14 11:52:55;;;;;;;4.88;1.50;;;;;;;20.86;36.94;101247.34;7398263;19;20450;-66
2022/05/14 11:55:27;;;;;;;8.15;2.00;;;;;;;20.92;36.45;101259.47;7398489;19;20022;-65
2022/05/14 11:58:03;;;;;;;8.80;2.08;;;;;;;20.95;36.50;101249.50;7396957;19;20543;-67
2022/05/14 12:00:35;;;;;;;7.97;2.42;;;;;;;20.99;36.66;101252.81;7397041;19;20010;-67
2022/05/14 12:03:12;;;;;;;4.60;1.83;;;;;;;21.04;35.88;101256.09;7396516;19;20390;-67
2022/05/14 12:05:46;;;;;;;7.15;2.33;;;;;;;21.08;35.84;101248.75;7397207;19;20019;-65
2022/05/14 12:08:32;;;;;;;3.58;1.40;;;;;;;21.07;36.17;101261.25;7398768;19;20035;-67
2022/05/14 12:11:06;;;;;;;6.93;2.47;;;;;;;21.14;36.26;101257.28;7397083;19;20019;-67
2022/05/14 12:13:41;;;;;;;5.50;1.92;;;;;;;21.10;36.25;101257.53;7394387;19;20031;-66